createdAt,value
2017-11-24T00:00:03.203Z,3.20
2017-11-24T00:02:29.552Z,3.07
2017-11-24T00:04:55.859Z,2.77
2017-11-24T00:07:22.177Z,6.10
2017-11-24T00:09:49.201Z,8.70
2017-11-24T00:12:15.519Z,10.40
2017-11-24T00:14:41.811Z,11.30
2017-11-24T00:17:08.115Z,12.20
2017-11-24T00:19:35.227Z,11.90
2017-11-24T00:22:03.065Z,13.27
2017-11-24T00:24:29.356Z,11.43
2017-11-24T00:26:56.421Z,11.57
2017-11-24T00:29:22.736Z,10.00
2017-11-24T00:31:49.774Z,10.67
2017-11-24T00:34:16.063Z,10.30
2017-11-24T00:36:49.382Z,11.23
2017-11-24T00:39:15.705Z,12.40
2017-11-24T00:41:42.040Z,12.23
2017-11-24T00:44:08.381Z,11.97
2017-11-24T00:46:34.688Z,13.13
2017-11-24T00:49:00.937Z,13.93
2017-11-24T00:51:27.303Z,16.00
2017-11-24T00:53:53.649Z,15.80
2017-11-24T00:56:19.954Z,15.43
2017-11-24T00:58:46.357Z,16.23
2017-11-24T01:01:12.973Z,15.23
2017-11-24T01:03:39.255Z,17.20
2017-11-24T01:06:05.572Z,15.10
2017-11-24T01:08:32.594Z,17.20
2017-11-24T01:10:58.934Z,18.40
2017-11-24T01:13:25.269Z,16.70
2017-11-24T01:15:51.585Z,18.00
2017-11-24T01:18:17.898Z,15.03
2017-11-24T01:20:44.269Z,17.20
2017-11-24T01:23:10.599Z,16.37
2017-11-24T01:25:36.932Z,17.70
2017-11-24T01:28:03.256Z,18.17
2017-11-24T01:30:29.563Z,17.70
2017-11-24T01:32:55.922Z,15.80
2017-11-24T01:35:22.223Z,16.37
2017-11-24T01:37:48.531Z,17.07
2017-11-24T01:40:14.783Z,17.30
2017-11-24T01:42:41.050Z,17.03
2017-11-24T01:45:07.304Z,18.20
2017-11-24T01:47:34.305Z,19.27
2017-11-24T01:50:02.080Z,16.57
2017-11-24T01:52:28.416Z,16.90
2017-11-24T01:54:54.748Z,18.17
2017-11-24T01:57:21.069Z,17.23
2017-11-24T01:59:47.396Z,19.00
2017-11-24T02:02:13.736Z,19.00
2017-11-24T02:04:40.006Z,18.20
2017-11-24T02:07:07.052Z,19.50
2017-11-24T02:09:33.321Z,16.90
2017-11-24T02:11:59.604Z,17.97
2017-11-24T02:14:26.659Z,18.90
2017-11-24T02:16:52.940Z,18.90
2017-11-24T02:19:19.213Z,20.17
2017-11-24T02:21:46.270Z,17.67
2017-11-24T02:24:12.553Z,19.20
2017-11-24T02:26:38.930Z,18.93
2017-11-24T02:29:05.305Z,17.60
2017-11-24T02:31:31.637Z,18.67
2017-11-24T02:33:57.909Z,20.37
2017-11-24T02:36:24.222Z,19.90
2017-11-24T02:38:50.475Z,21.27
2017-11-24T02:41:17.472Z,20.20
2017-11-24T02:43:43.751Z,19.87
2017-11-24T02:46:10.740Z,19.60
2017-11-24T02:48:37.210Z,20.40
2017-11-24T02:51:04.896Z,18.90
2017-11-24T02:53:31.930Z,18.87
2017-11-24T02:55:59.042Z,20.43
2017-11-24T02:58:25.384Z,20.30
2017-11-24T03:00:51.705Z,20.97
2017-11-24T03:03:17.990Z,19.63
2017-11-24T03:05:45.140Z,19.97
2017-11-24T03:08:12.142Z,18.93
2017-11-24T03:10:38.406Z,19.50
2017-11-24T03:13:05.465Z,19.40
2017-11-24T03:15:32.473Z,20.07
2017-11-24T03:17:58.725Z,22.13
2017-11-24T03:20:24.993Z,20.17
2017-11-24T03:22:51.325Z,19.00
2017-11-24T03:25:17.655Z,19.93
2017-11-24T03:27:43.955Z,20.87
2017-11-24T03:30:11.028Z,20.27
2017-11-24T03:32:37.290Z,22.37
2017-11-24T03:35:03.690Z,19.00
2017-11-24T03:37:29.988Z,19.93
2017-11-24T03:39:56.274Z,19.50
2017-11-24T03:42:22.659Z,21.20
2017-11-24T03:44:49.676Z,22.40
2017-11-24T03:47:15.961Z,20.23
2017-11-24T03:49:42.237Z,20.50
2017-11-24T03:52:08.548Z,20.97
2017-11-24T03:54:34.853Z,20.67
2017-11-24T03:57:01.166Z,19.87
2017-11-24T03:59:28.237Z,20.00
2017-11-24T04:01:54.530Z,18.30
2017-11-24T04:04:20.886Z,20.57
2017-11-24T04:06:47.204Z,19.40
2017-11-24T04:09:14.231Z,19.90
2017-11-24T04:11:40.523Z,19.77
2017-11-24T04:14:06.849Z,18.73
2017-11-24T04:16:33.157Z,19.03
2017-11-24T04:18:59.447Z,18.73
2017-11-24T04:21:25.785Z,19.90
2017-11-24T04:23:52.051Z,18.37
2017-11-24T04:26:18.340Z,20.10
2017-11-24T04:28:44.641Z,19.50
2017-11-24T04:31:10.954Z,19.67
2017-11-24T04:33:37.262Z,17.60
2017-11-24T04:36:03.652Z,21.60
2017-11-24T04:38:29.925Z,19.40
2017-11-24T04:40:56.962Z,18.93
2017-11-24T04:43:23.978Z,20.97
2017-11-24T04:45:50.239Z,19.57
2017-11-24T04:48:16.563Z,20.03
2017-11-24T04:50:42.888Z,20.27
2017-11-24T04:53:09.316Z,19.87
2017-11-24T04:55:35.655Z,17.57
2017-11-24T04:58:02.701Z,20.00
2017-11-24T05:00:29.032Z,18.30
2017-11-24T05:02:55.363Z,19.30
2017-11-24T05:05:23.153Z,18.60
2017-11-24T05:07:50.483Z,20.27
2017-11-24T05:10:16.781Z,20.40
2017-11-24T05:12:43.117Z,19.40
2017-11-24T05:15:09.380Z,18.40
2017-11-24T05:17:35.652Z,18.37
2017-11-24T05:20:01.968Z,18.67
2017-11-24T05:22:29.007Z,20.27
2017-11-24T05:24:56.057Z,17.50
2017-11-24T05:27:23.141Z,19.90
2017-11-24T05:29:49.408Z,20.73
2017-11-24T05:32:15.711Z,20.03
2017-11-24T05:34:42.022Z,19.10
2017-11-24T05:37:08.301Z,19.30
2017-11-24T05:39:34.672Z,18.50
2017-11-24T05:42:00.990Z,21.37
2017-11-24T05:44:27.333Z,21.27
2017-11-24T05:46:53.591Z,20.10
2017-11-24T05:49:19.978Z,21.43
2017-11-24T05:51:47.035Z,21.47
2017-11-24T05:54:13.323Z,21.73
2017-11-24T05:56:39.608Z,18.90
2017-11-24T05:59:05.954Z,20.00
2017-11-24T06:01:32.255Z,22.00
2017-11-24T06:03:58.583Z,19.47
2017-11-24T06:06:25.586Z,19.33
2017-11-24T06:08:51.881Z,19.53
2017-11-24T06:11:18.210Z,19.50
2017-11-24T06:13:44.575Z,18.73
2017-11-24T06:16:10.880Z,18.47
2017-11-24T06:18:37.219Z,18.53
2017-11-24T06:21:03.517Z,19.77
2017-11-24T06:23:30.579Z,18.80
2017-11-24T06:25:56.957Z,20.60
2017-11-24T06:28:23.237Z,20.97
2017-11-24T06:30:49.518Z,18.57
2017-11-24T06:33:15.817Z,18.73
2017-11-24T06:35:42.122Z,22.07
2017-11-24T06:38:08.441Z,19.57
2017-11-24T06:40:35.485Z,20.80
2017-11-24T06:43:02.537Z,21.77
2017-11-24T06:45:29.533Z,20.00
2017-11-24T06:47:55.874Z,20.20
2017-11-24T06:50:22.241Z,18.70
2017-11-24T06:52:49.324Z,21.37
2017-11-24T06:55:15.672Z,18.10
2017-11-24T06:57:42.064Z,19.40
2017-11-24T07:00:09.129Z,19.10
2017-11-24T07:02:35.450Z,20.50
2017-11-24T07:05:02.512Z,20.00
2017-11-24T07:07:28.829Z,19.50
2017-11-24T07:09:55.892Z,20.27
2017-11-24T07:12:22.174Z,19.20
2017-11-24T07:14:48.428Z,19.90
2017-11-24T07:17:15.466Z,18.27
2017-11-24T07:19:41.721Z,17.07
2017-11-24T07:22:08.060Z,20.07
2017-11-24T07:24:34.390Z,19.93
2017-11-24T07:27:00.725Z,19.83
2017-11-24T07:29:27.083Z,20.03
2017-11-24T07:31:53.618Z,18.70
2017-11-24T07:34:19.989Z,17.37
2017-11-24T07:36:48.394Z,19.10
2017-11-24T07:39:14.705Z,19.13
2017-11-24T07:41:41.738Z,20.33
2017-11-24T07:44:08.032Z,19.70
2017-11-24T07:46:34.291Z,19.80
2017-11-24T07:49:00.610Z,17.20
2017-11-24T07:51:26.970Z,18.60
2017-11-24T07:53:53.293Z,20.10
2017-11-24T07:56:19.693Z,18.00
2017-11-24T07:58:45.973Z,18.13
2017-11-24T08:01:12.282Z,18.80
2017-11-24T08:03:38.609Z,17.97
2017-11-24T08:06:04.870Z,18.50
2017-11-24T08:08:31.242Z,16.80
2017-11-24T08:10:57.647Z,17.03
2017-11-24T08:13:23.979Z,18.83
2017-11-24T08:15:50.302Z,16.67
2017-11-24T08:18:16.639Z,15.60
2017-11-24T08:20:42.993Z,16.37
2017-11-24T08:23:09.331Z,15.33
2017-11-24T08:25:35.704Z,16.90
2017-11-24T08:28:02.025Z,14.43
2017-11-24T08:30:28.355Z,16.47
2017-11-24T08:32:54.648Z,13.77
2017-11-24T08:35:20.952Z,15.03
2017-11-24T08:37:48.063Z,15.90
2017-11-24T08:40:14.458Z,15.33
2017-11-24T08:42:40.829Z,15.13
2017-11-24T08:45:07.302Z,14.97
2017-11-24T08:47:40.879Z,14.40
2017-11-24T08:50:07.233Z,14.43
2017-11-24T08:52:33.571Z,14.27
2017-11-24T08:54:59.896Z,12.97
2017-11-24T08:57:26.185Z,15.70
2017-11-24T08:59:52.555Z,14.50
2017-11-24T09:02:19.653Z,14.17
2017-11-24T09:04:46.002Z,13.50
2017-11-24T09:07:12.330Z,15.07
2017-11-24T09:09:38.712Z,13.60
2017-11-24T09:12:05.032Z,14.53
2017-11-24T09:14:32.188Z,13.70
2017-11-24T09:16:58.501Z,13.87
2017-11-24T09:19:25.523Z,14.20
2017-11-24T09:21:51.960Z,12.60
2017-11-24T09:24:18.327Z,13.67
2017-11-24T09:26:44.684Z,12.90
2017-11-24T09:29:11.012Z,12.23
2017-11-24T09:31:37.349Z,12.63
2017-11-24T09:34:03.673Z,11.90
2017-11-24T09:36:30.009Z,12.80
2017-11-24T09:38:56.433Z,13.23
2017-11-24T09:41:22.806Z,13.13
2017-11-24T09:43:49.101Z,12.80
2017-11-24T09:46:15.412Z,10.10
2017-11-24T09:48:41.769Z,9.40
2017-11-24T09:51:08.123Z,4.53
2017-11-24T09:53:34.435Z,3.33
2017-11-24T09:56:00.802Z,2.80
2017-11-24T09:58:27.140Z,3.03
2017-11-24T10:00:53.470Z,2.80
2017-11-24T10:03:20.066Z,2.70
2017-11-24T10:05:46.395Z,2.67
2017-11-24T10:08:17.694Z,2.67
2017-11-24T10:10:44.117Z,3.13
2017-11-24T10:13:10.403Z,2.00
2017-11-24T10:15:36.715Z,2.87
2017-11-24T10:18:03.185Z,2.80
2017-11-24T10:20:29.542Z,2.37
2017-11-24T10:22:55.898Z,2.50
2017-11-24T10:25:22.294Z,2.67
2017-11-24T10:27:49.040Z,1.80
2017-11-24T10:30:15.376Z,2.90
2017-11-24T10:32:41.665Z,2.00
2017-11-24T10:35:08.003Z,3.10
2017-11-24T10:37:34.923Z,2.40
2017-11-24T10:40:01.340Z,3.00
2017-11-24T10:42:28.402Z,3.00
2017-11-24T10:44:54.674Z,2.83
2017-11-24T10:47:20.957Z,2.97
2017-11-24T10:49:47.979Z,2.60
2017-11-24T10:52:14.283Z,2.80
2017-11-24T10:54:40.604Z,2.23
2017-11-24T10:57:06.904Z,2.30
2017-11-24T10:59:33.989Z,2.73
2017-11-24T11:02:01.237Z,2.87
2017-11-24T11:04:28.452Z,2.50
2017-11-24T11:06:55.575Z,2.57
2017-11-24T11:09:21.895Z,3.27
2017-11-24T11:11:48.200Z,2.90
2017-11-24T11:14:14.608Z,2.43
2017-11-24T11:16:41.189Z,2.90
2017-11-24T11:19:08.396Z,2.30
2017-11-24T11:21:34.667Z,2.10
2017-11-24T11:24:01.002Z,2.30
2017-11-24T11:26:27.293Z,2.67
2017-11-24T11:28:53.541Z,2.80
2017-11-24T11:31:19.858Z,2.27
2017-11-24T11:33:46.196Z,2.80
2017-11-24T11:36:12.517Z,2.70
2017-11-24T11:38:38.938Z,2.20
2017-11-24T11:41:06.003Z,2.77
2017-11-24T11:43:32.421Z,3.00
2017-11-24T11:45:58.868Z,2.13
2017-11-24T11:48:25.211Z,2.40
2017-11-24T11:50:51.681Z,2.23
2017-11-24T11:53:17.956Z,2.80
2017-11-24T11:55:44.263Z,2.20
2017-11-24T11:58:11.365Z,3.00
2017-11-24T12:00:37.736Z,2.00
2017-11-24T12:03:04.048Z,2.40
2017-11-24T12:05:30.386Z,1.87
2017-11-24T12:07:56.859Z,2.80
2017-11-24T12:10:23.384Z,1.90
2017-11-24T12:12:49.869Z,1.60
2017-11-24T12:15:16.961Z,1.83
2017-11-24T12:17:44.022Z,2.40
2017-11-24T12:20:10.608Z,2.00
2017-11-24T12:22:36.924Z,2.10
2017-11-24T12:25:03.247Z,3.07
2017-11-24T12:27:29.576Z,2.00
2017-11-24T12:29:55.911Z,1.60
2017-11-24T12:32:22.244Z,2.70
2017-11-24T12:34:48.584Z,2.53
2017-11-24T12:37:14.874Z,2.40
2017-11-24T12:39:42.009Z,1.80
2017-11-24T12:42:08.375Z,2.40
2017-11-24T12:44:34.677Z,2.17
2017-11-24T12:47:01.696Z,2.00
2017-11-24T12:49:28.053Z,2.27
2017-11-24T12:51:55.105Z,1.93
2017-11-24T12:54:22.229Z,2.80
2017-11-24T12:56:48.583Z,1.90
2017-11-24T12:59:15.624Z,2.50
2017-11-24T13:01:42.734Z,2.57
2017-11-24T13:04:09.043Z,3.00
2017-11-24T13:06:35.373Z,2.60
2017-11-24T13:09:01.701Z,3.00
2017-11-24T13:11:28.031Z,2.90
2017-11-24T13:13:54.467Z,2.73
2017-11-24T13:16:20.799Z,2.47
2017-11-24T13:18:47.235Z,1.97
2017-11-24T13:21:13.513Z,3.40
2017-11-24T13:23:39.826Z,2.50
2017-11-24T13:26:06.124Z,2.30
2017-11-24T13:28:32.398Z,2.73
2017-11-24T13:30:58.812Z,2.00
2017-11-24T13:33:25.129Z,2.67
2017-11-24T13:35:51.452Z,2.63
2017-11-24T13:38:17.755Z,3.20
2017-11-24T13:40:44.794Z,2.57
2017-11-24T13:43:11.075Z,2.40
2017-11-24T13:45:37.415Z,2.80
2017-11-24T13:48:03.722Z,2.90
2017-11-24T13:50:30.058Z,3.10
2017-11-24T13:52:56.458Z,2.53
2017-11-24T13:55:22.809Z,2.67
2017-11-24T13:57:49.184Z,3.50
2017-11-24T14:00:15.535Z,3.37
2017-11-24T14:02:41.864Z,2.37
2017-11-24T14:05:08.242Z,3.17
2017-11-24T14:07:34.585Z,2.97
2017-11-24T14:10:01.108Z,3.23
2017-11-24T14:12:27.439Z,2.97
2017-11-24T14:14:53.785Z,2.83
2017-11-24T14:17:20.120Z,2.67
2017-11-24T14:19:46.443Z,2.83
2017-11-24T14:22:12.767Z,2.63
2017-11-24T14:24:39.084Z,2.53
2017-11-24T14:27:06.197Z,2.70
2017-11-24T14:29:32.534Z,3.60
2017-11-24T14:31:59.275Z,3.17
2017-11-24T14:34:25.745Z,4.30
2017-11-24T14:36:52.821Z,8.33
2017-11-24T14:39:19.151Z,5.80
2017-11-24T14:41:45.508Z,3.37
2017-11-24T14:44:12.429Z,3.60
2017-11-24T14:46:39.070Z,5.17
2017-11-24T14:49:05.511Z,2.33
2017-11-24T14:51:32.587Z,3.07
2017-11-24T14:53:59.223Z,3.73
2017-11-24T14:56:27.779Z,3.40
2017-11-24T14:58:54.299Z,7.53
2017-11-24T15:01:20.750Z,12.20
2017-11-24T15:03:47.171Z,21.30
2017-11-24T15:06:13.588Z,21.07
2017-11-24T15:08:40.214Z,8.57
2017-11-24T15:11:06.807Z,4.10
2017-11-24T15:13:33.151Z,4.33
2017-11-24T15:15:59.609Z,4.90
2017-11-24T15:18:26.992Z,5.30
2017-11-24T15:20:53.452Z,6.33
2017-11-24T15:23:19.880Z,4.47
2017-11-24T15:25:46.169Z,3.67
2017-11-24T15:28:13.399Z,3.93
2017-11-24T15:30:39.974Z,4.70
2017-11-24T15:33:06.391Z,5.70
2017-11-24T15:35:32.813Z,11.00
2017-11-24T15:38:00.083Z,14.83
2017-11-24T15:40:27.165Z,13.03
2017-11-24T15:42:53.576Z,7.23
2017-11-24T15:45:20.095Z,8.10
2017-11-24T15:47:46.460Z,6.07
2017-11-24T15:50:12.773Z,7.10
2017-11-24T15:52:39.192Z,5.70
2017-11-24T15:55:06.306Z,4.83
2017-11-24T15:57:34.178Z,5.00
2017-11-24T16:00:00.651Z,6.90
2017-11-24T16:02:27.043Z,5.40
2017-11-24T16:04:53.601Z,5.40
2017-11-24T16:07:20.708Z,5.83
2017-11-24T16:09:48.188Z,4.90
2017-11-24T16:12:14.556Z,5.33
2017-11-24T16:14:40.900Z,4.13
2017-11-24T16:17:07.886Z,5.30
2017-11-24T16:19:34.188Z,4.33
2017-11-24T16:22:00.727Z,5.00
2017-11-24T16:24:27.056Z,4.93
2017-11-24T16:26:53.435Z,5.23
2017-11-24T16:29:20.557Z,5.67
2017-11-24T16:31:46.853Z,5.57
2017-11-24T16:34:14.066Z,5.43
2017-11-24T16:36:41.131Z,6.33
2017-11-24T16:39:08.185Z,6.20
2017-11-24T16:41:35.400Z,5.17
2017-11-24T16:44:01.844Z,4.33
2017-11-24T16:46:28.318Z,4.63
2017-11-24T16:48:56.753Z,4.60
2017-11-24T16:51:23.230Z,5.40
2017-11-24T16:53:49.587Z,5.90
2017-11-24T16:56:15.884Z,4.70
2017-11-24T16:58:42.961Z,4.70
2017-11-24T17:01:09.330Z,5.03
2017-11-24T17:03:35.712Z,5.27
2017-11-24T17:06:02.094Z,4.53
2017-11-24T17:08:28.466Z,4.77
2017-11-24T17:10:55.550Z,5.03
2017-11-24T17:13:21.996Z,4.60
2017-11-24T17:15:48.332Z,4.30
2017-11-24T17:18:16.532Z,4.37
2017-11-24T17:20:43.598Z,4.70
2017-11-24T17:23:10.050Z,4.10
2017-11-24T17:25:36.395Z,4.40
2017-11-24T17:28:02.696Z,4.93
2017-11-24T17:30:30.045Z,4.10
2017-11-24T17:32:56.476Z,4.77
2017-11-24T17:35:23.620Z,5.20
2017-11-24T17:37:50.810Z,5.07
2017-11-24T17:40:17.151Z,6.40
2017-11-24T17:42:43.473Z,6.50
2017-11-24T17:45:09.880Z,5.83
2017-11-24T17:47:36.949Z,5.00
2017-11-24T17:50:03.320Z,5.83
2017-11-24T17:52:29.698Z,4.43
2017-11-24T17:54:56.744Z,4.70
2017-11-24T17:57:23.800Z,3.97
2017-11-24T17:59:50.225Z,3.40
2017-11-24T18:02:17.342Z,2.73
2017-11-24T18:04:43.652Z,2.73
2017-11-24T18:07:10.008Z,2.33
2017-11-24T18:09:36.419Z,2.63
2017-11-24T18:12:02.794Z,3.10
2017-11-24T18:14:29.165Z,3.90
2017-11-24T18:16:55.532Z,3.53
2017-11-24T18:19:21.814Z,3.10
2017-11-24T18:21:48.202Z,3.30
2017-11-24T18:24:14.556Z,3.00
2017-11-24T18:26:41.640Z,4.20
2017-11-24T18:29:07.953Z,3.00
2017-11-24T18:31:34.322Z,4.20
2017-11-24T18:34:00.627Z,3.33
2017-11-24T18:36:27.041Z,3.20
2017-11-24T18:38:53.544Z,3.77
2017-11-24T18:41:20.668Z,2.80
2017-11-24T18:43:46.988Z,3.13
2017-11-24T18:46:14.289Z,2.53
2017-11-24T18:48:41.542Z,3.27
2017-11-24T18:51:08.953Z,3.70
2017-11-24T18:53:35.533Z,2.87
2017-11-24T18:56:02.704Z,2.93
2017-11-24T18:58:29.884Z,3.10
2017-11-24T19:00:56.383Z,2.70
2017-11-24T19:03:24.059Z,3.60
2017-11-24T19:05:51.251Z,3.30
2017-11-24T19:08:17.617Z,3.67
2017-11-24T19:10:44.976Z,2.90
2017-11-24T19:13:12.093Z,3.20
2017-11-24T19:15:38.579Z,3.00
2017-11-24T19:18:05.026Z,3.00
2017-11-24T19:20:31.457Z,3.77
2017-11-24T19:22:57.864Z,4.07
2017-11-24T19:25:25.003Z,3.47
2017-11-24T19:27:51.426Z,3.87
2017-11-24T19:30:17.903Z,4.93
2017-11-24T19:32:44.527Z,4.63
2017-11-24T19:35:11.584Z,4.40
2017-11-24T19:37:38.966Z,4.70
2017-11-24T19:40:05.507Z,5.40
2017-11-24T19:42:31.892Z,4.77
2017-11-24T19:44:58.312Z,5.53
2017-11-24T19:47:24.595Z,4.23
2017-11-24T19:49:50.970Z,7.87
2017-11-24T19:52:17.382Z,5.10
2017-11-24T19:54:43.759Z,3.40
2017-11-24T19:57:10.056Z,3.00
2017-11-24T19:59:37.639Z,3.20
2017-11-24T20:02:04.848Z,3.60
2017-11-24T20:04:31.436Z,5.80
2017-11-24T20:06:57.782Z,3.30
2017-11-24T20:09:24.965Z,2.73
2017-11-24T20:11:51.385Z,3.33
2017-11-24T20:14:17.767Z,4.30
2017-11-24T20:16:44.076Z,10.00
2017-11-24T20:19:10.628Z,4.40
2017-11-24T20:21:36.922Z,4.70
2017-11-24T20:24:03.254Z,5.53
2017-11-24T20:26:29.618Z,6.03
2017-11-24T20:28:56.021Z,6.40
2017-11-24T20:31:22.504Z,3.97
2017-11-24T20:33:48.830Z,3.87
2017-11-24T20:36:16.128Z,3.60
2017-11-24T20:38:42.540Z,3.60
2017-11-24T20:41:09.597Z,2.70
2017-11-24T20:43:36.741Z,3.03
2017-11-24T20:46:04.391Z,2.97
2017-11-24T20:48:31.500Z,4.07
2017-11-24T20:50:57.852Z,3.53
2017-11-24T20:53:24.247Z,1.83
2017-11-24T20:55:50.602Z,2.53
2017-11-24T20:58:17.095Z,3.97
2017-11-24T21:00:43.596Z,2.50
2017-11-24T21:03:09.924Z,3.03
2017-11-24T21:05:36.318Z,3.90
2017-11-24T21:08:02.671Z,3.37
2017-11-24T21:10:29.144Z,2.70
2017-11-24T21:13:03.263Z,4.63
2017-11-24T21:15:30.429Z,2.87
2017-11-24T21:17:56.874Z,5.20
2017-11-24T21:20:23.282Z,3.53
2017-11-24T21:22:50.448Z,3.70
2017-11-24T21:25:16.975Z,3.07
2017-11-24T21:27:43.646Z,4.07
2017-11-24T21:30:10.379Z,3.40
2017-11-24T21:32:36.710Z,5.70
2017-11-24T21:35:03.104Z,4.93
2017-11-24T21:37:30.208Z,6.60
2017-11-24T21:39:56.985Z,9.27
2017-11-24T21:42:23.655Z,7.07
2017-11-24T21:44:50.906Z,5.97
2017-11-24T21:47:17.756Z,7.43
2017-11-24T21:49:44.279Z,6.50
2017-11-24T21:52:10.617Z,5.57
2017-11-24T21:54:37.041Z,8.00
2017-11-24T21:57:04.187Z,6.33
2017-11-24T21:59:32.167Z,5.97
2017-11-24T22:01:58.850Z,5.70
2017-11-24T22:04:25.663Z,4.80
2017-11-24T22:06:52.026Z,6.30
2017-11-24T22:09:18.416Z,5.40
2017-11-24T22:11:44.809Z,6.03
2017-11-24T22:14:11.304Z,6.17
2017-11-24T22:16:37.663Z,4.90
2017-11-24T22:19:04.054Z,3.93
2017-11-24T22:21:30.756Z,6.47
2017-11-24T22:23:57.126Z,7.13
2017-11-24T22:26:23.452Z,6.70
2017-11-24T22:28:49.829Z,7.43
2017-11-24T22:31:16.251Z,6.90
2017-11-24T22:33:42.612Z,7.17
2017-11-24T22:36:09.093Z,7.40
2017-11-24T22:38:35.487Z,8.13
2017-11-24T22:41:01.913Z,9.47
2017-11-24T22:43:28.409Z,9.50
2017-11-24T22:45:54.751Z,9.33
2017-11-24T22:48:21.072Z,9.47
2017-11-24T22:50:47.427Z,10.40
2017-11-24T22:53:13.809Z,9.50
2017-11-24T22:55:40.176Z,9.87
2017-11-24T22:58:06.510Z,8.97
2017-11-24T23:00:32.875Z,8.53
2017-11-24T23:02:59.715Z,9.00
2017-11-24T23:05:26.015Z,9.13
2017-11-24T23:07:52.353Z,10.10
2017-11-24T23:10:18.666Z,11.60
2017-11-24T23:12:45.000Z,11.13
2017-11-24T23:15:11.396Z,12.10
2017-11-24T23:17:38.457Z,10.17
2017-11-24T23:20:05.073Z,12.83
2017-11-24T23:22:31.430Z,10.67
2017-11-24T23:24:57.760Z,9.47
2017-11-24T23:27:24.233Z,8.07
2017-11-24T23:29:50.645Z,9.20
2017-11-24T23:32:16.917Z,11.30
2017-11-24T23:34:43.208Z,10.10
2017-11-24T23:37:09.984Z,5.73
2017-11-24T23:39:36.281Z,6.53
2017-11-24T23:42:03.037Z,5.50
2017-11-24T23:44:29.463Z,6.90
2017-11-24T23:46:55.783Z,10.40
2017-11-24T23:49:22.158Z,9.67
2017-11-24T23:51:48.548Z,10.77
2017-11-24T23:54:14.883Z,16.13
2017-11-24T23:56:41.412Z,12.10
2017-11-24T23:59:07.734Z,9.63
